createdAt,value
2022-10-23T00:00:34.899Z,0
2022-10-23T00:01:31.571Z,0
2022-10-23T00:02:35.221Z,0
2022-10-23T00:03:31.538Z,0
2022-10-23T00:04:31.585Z,0
2022-10-23T00:05:34.566Z,0
2022-10-23T00:06:37.298Z,0
2022-10-23T00:07:32.732Z,0
2022-10-23T00:08:31.616Z,0
2022-10-23T00:09:31.498Z,0
2022-10-23T00:10:31.625Z,0
2022-10-23T00:11:34.467Z,0
2022-10-23T00:12:31.502Z,0
2022-10-23T00:13:31.525Z,0
2022-10-23T00:14:31.523Z,0
2022-10-23T00:15:31.518Z,0
2022-10-23T00:16:34.367Z,0
2022-10-23T00:17:32.562Z,0
2022-10-23T00:18:31.444Z,0
2022-10-23T00:19:31.517Z,0
2022-10-23T00:20:31.670Z,0
2022-10-23T00:21:31.538Z,0
2022-10-23T00:22:34.607Z,0
2022-10-23T00:23:31.732Z,0
2022-10-23T00:24:31.561Z,0
2022-10-23T00:25:31.550Z,0
2022-10-23T00:26:31.547Z,0
2022-10-23T00:27:32.689Z,0
2022-10-23T00:28:31.573Z,0
2022-10-23T00:29:31.552Z,0
2022-10-23T00:30:31.540Z,0
2022-10-23T00:31:31.698Z,0
2022-10-23T00:33:34.628Z,0
2022-10-23T00:34:31.587Z,0
2022-10-23T00:35:31.567Z,0
2022-10-23T00:36:31.554Z,0
2022-10-23T00:37:31.579Z,0
2022-10-23T00:38:35.051Z,0
2022-10-23T00:39:31.579Z,0
2022-10-23T00:40:31.544Z,0
2022-10-23T00:41:31.565Z,0
2022-10-23T00:42:31.618Z,0
2022-10-23T00:43:31.640Z,0
2022-10-23T00:44:34.380Z,0
2022-10-23T00:45:34.394Z,0
2022-10-23T00:46:31.565Z,0
2022-10-23T00:47:31.568Z,0
2022-10-23T00:48:31.594Z,0
2022-10-23T00:49:39.446Z,0
2022-10-23T00:50:31.577Z,0
2022-10-23T00:51:31.560Z,0
2022-10-23T00:52:31.558Z,0
2022-10-23T00:53:31.615Z,0
2022-10-23T00:54:33.471Z,0
2022-10-23T00:55:31.572Z,0
2022-10-23T00:56:31.587Z,0
2022-10-23T00:57:31.740Z,0
2022-10-23T00:58:31.669Z,0
2022-10-23T00:59:31.638Z,0
2022-10-23T01:00:40.303Z,0
2022-10-23T01:01:32.317Z,0
2022-10-23T01:02:32.329Z,0
2022-10-23T01:03:31.704Z,0
2022-10-23T01:04:31.799Z,0
2022-10-23T01:05:31.709Z,0
2022-10-23T01:06:31.686Z,0
2022-10-23T01:07:31.616Z,0
2022-10-23T01:08:31.639Z,0
2022-10-23T01:09:31.641Z,0
2022-10-23T01:10:31.685Z,0
2022-10-23T01:11:31.626Z,0
2022-10-23T01:12:31.626Z,0
2022-10-23T01:13:31.631Z,0
2022-10-23T01:14:31.693Z,0
2022-10-23T01:15:31.692Z,0
2022-10-23T01:16:35.078Z,0
2022-10-23T01:17:31.663Z,0
2022-10-23T01:18:34.743Z,0
2022-10-23T01:19:31.625Z,0
2022-10-23T01:20:31.700Z,0
2022-10-23T01:21:31.758Z,0
2022-10-23T01:22:31.766Z,0
2022-10-23T01:23:31.656Z,0
2022-10-23T01:24:31.656Z,0
2022-10-23T01:25:31.662Z,0
2022-10-23T01:26:31.704Z,0
2022-10-23T01:27:34.400Z,0
2022-10-23T01:28:31.656Z,0
2022-10-23T01:29:31.626Z,0
2022-10-23T01:30:31.802Z,0
2022-10-23T01:31:31.810Z,0
2022-10-23T01:32:34.724Z,0
2022-10-23T01:33:31.668Z,0
2022-10-23T01:34:31.638Z,0
2022-10-23T01:35:31.651Z,0
2022-10-23T01:36:31.644Z,0
2022-10-23T01:37:31.735Z,0
2022-10-23T01:38:34.755Z,0
2022-10-23T01:39:31.675Z,0
2022-10-23T01:40:31.671Z,0
2022-10-23T01:41:31.659Z,0
2022-10-23T01:42:31.825Z,0
2022-10-23T01:43:32.752Z,0
2022-10-23T01:44:31.677Z,0
2022-10-23T01:45:31.671Z,0
2022-10-23T01:46:31.677Z,0
2022-10-23T01:47:31.721Z,0
2022-10-23T01:48:34.736Z,0
2022-10-23T01:49:34.495Z,0
2022-10-23T01:50:31.682Z,0
2022-10-23T01:51:31.674Z,0
2022-10-23T01:52:31.672Z,0
2022-10-23T01:53:31.742Z,0
2022-10-23T01:54:34.814Z,0
2022-10-23T01:55:31.808Z,0
2022-10-23T01:56:31.662Z,0
2022-10-23T01:57:31.691Z,0
2022-10-23T01:58:31.743Z,0
2022-10-23T01:59:32.427Z,0
2022-10-23T02:00:31.705Z,0
2022-10-23T02:01:32.396Z,0
2022-10-23T02:02:32.297Z,0
2022-10-23T02:03:31.714Z,0
2022-10-23T02:04:31.704Z,0
2022-10-23T02:05:34.525Z,0
2022-10-23T02:06:31.686Z,0
2022-10-23T02:07:31.726Z,0
2022-10-23T02:08:31.699Z,0
2022-10-23T02:09:31.788Z,0
2022-10-23T02:10:34.875Z,0
2022-10-23T02:11:31.687Z,0
2022-10-23T02:12:31.872Z,0
2022-10-23T02:13:31.727Z,0
2022-10-23T02:14:31.747Z,0
2022-10-23T02:15:31.717Z,0
2022-10-23T02:16:34.506Z,0
2022-10-23T02:17:31.719Z,0
2022-10-23T02:18:31.750Z,0
2022-10-23T02:19:31.749Z,0
2022-10-23T02:20:31.743Z,0
2022-10-23T02:21:34.822Z,0
2022-10-23T02:22:31.717Z,0
2022-10-23T02:23:31.716Z,0
2022-10-23T02:24:34.751Z,0
2022-10-23T02:25:31.779Z,0
2022-10-23T02:26:31.769Z,0
2022-10-23T02:27:34.861Z,0
2022-10-23T02:28:32.445Z,0
2022-10-23T02:29:31.750Z,0
2022-10-23T02:30:31.788Z,0
2022-10-23T02:31:31.740Z,0
2022-10-23T02:32:34.832Z,0
2022-10-23T02:33:31.934Z,0
2022-10-23T02:34:31.769Z,0
2022-10-23T02:35:31.750Z,0
2022-10-23T02:36:31.765Z,0
2022-10-23T02:37:31.830Z,0
2022-10-23T02:38:34.601Z,0
2022-10-23T02:39:31.780Z,0
2022-10-23T02:40:31.772Z,0
2022-10-23T02:41:31.814Z,0
2022-10-23T02:42:31.758Z,0
2022-10-23T02:43:34.642Z,0
2022-10-23T02:44:31.774Z,0
2022-10-23T02:45:31.838Z,0
2022-10-23T02:46:31.782Z,0
2022-10-23T02:47:31.781Z,0
2022-10-23T02:48:31.766Z,0
2022-10-23T02:49:34.863Z,0
2022-10-23T02:50:31.768Z,0
2022-10-23T02:51:31.831Z,0
2022-10-23T02:52:31.766Z,0
2022-10-23T02:53:31.793Z,0
2022-10-23T02:54:33.112Z,0
2022-10-23T02:55:31.789Z,0
2022-10-23T02:56:32.633Z,0
2022-10-23T02:57:31.825Z,0
2022-10-23T02:58:31.890Z,0
2022-10-23T02:59:31.809Z,0
2022-10-23T03:00:34.566Z,0
2022-10-23T03:01:32.703Z,0
2022-10-23T03:02:33.093Z,0
2022-10-23T03:03:31.780Z,0
2022-10-23T03:04:31.985Z,0
2022-10-23T03:05:34.795Z,0
2022-10-23T03:06:31.812Z,0
2022-10-23T03:07:31.819Z,0
2022-10-23T03:08:31.794Z,0
2022-10-23T03:09:31.863Z,0
2022-10-23T03:10:31.794Z,0
2022-10-23T03:11:34.631Z,0
2022-10-23T03:12:31.827Z,0
2022-10-23T03:13:31.855Z,0
2022-10-23T03:14:31.992Z,0
2022-10-23T03:15:31.810Z,0
2022-10-23T03:16:34.827Z,0
2022-10-23T03:17:31.796Z,0
2022-10-23T03:18:31.911Z,0
2022-10-23T03:19:31.861Z,0
2022-10-23T03:20:31.823Z,0
2022-10-23T03:21:31.816Z,0
2022-10-23T03:22:31.833Z,0
2022-10-23T03:23:31.861Z,0
2022-10-23T03:24:31.857Z,0
2022-10-23T03:25:31.825Z,0
2022-10-23T03:26:31.826Z,0
2022-10-23T03:27:33.265Z,0
2022-10-23T03:28:31.859Z,0
2022-10-23T03:29:31.905Z,0
2022-10-23T03:30:31.839Z,0
2022-10-23T03:31:31.828Z,0
2022-10-23T03:32:32.029Z,0
2022-10-23T03:33:31.831Z,0
2022-10-23T03:34:33.185Z,0
2022-10-23T03:35:31.833Z,0
2022-10-23T03:36:31.874Z,0
2022-10-23T03:37:31.829Z,0
2022-10-23T03:38:31.919Z,0
2022-10-23T03:39:31.890Z,0
2022-10-23T03:40:31.865Z,0
2022-10-23T03:41:31.841Z,0
2022-10-23T03:42:31.857Z,0
2022-10-23T03:43:34.714Z,0
2022-10-23T03:44:31.898Z,0
2022-10-23T03:45:31.906Z,0
2022-10-23T03:46:31.852Z,0
2022-10-23T03:47:31.862Z,0
2022-10-23T03:48:31.860Z,0
2022-10-23T03:49:31.898Z,0
2022-10-23T03:50:31.889Z,0
2022-10-23T03:51:31.852Z,0
2022-10-23T03:52:34.947Z,0
2022-10-23T03:53:31.882Z,0
2022-10-23T03:54:33.016Z,0
2022-10-23T03:55:31.891Z,0
2022-10-23T03:56:31.891Z,0
2022-10-23T03:57:31.866Z,0
2022-10-23T03:58:31.875Z,0
2022-10-23T03:59:34.843Z,0
2022-10-23T04:00:32.077Z,0
2022-10-23T04:01:32.767Z,0
2022-10-23T04:02:32.385Z,0
2022-10-23T04:03:31.885Z,0
2022-10-23T04:04:31.906Z,0
2022-10-23T04:05:34.689Z,0
2022-10-23T04:06:32.366Z,0
2022-10-23T04:07:31.904Z,0
2022-10-23T04:08:31.898Z,0
2022-10-23T04:09:32.004Z,0
2022-10-23T04:10:34.764Z,0
2022-10-23T04:11:31.916Z,0
2022-10-23T04:12:31.916Z,0
2022-10-23T04:13:31.901Z,0
2022-10-23T04:14:31.936Z,0
2022-10-23T04:15:32.100Z,0
2022-10-23T04:16:34.699Z,0
2022-10-23T04:17:32.166Z,0
2022-10-23T04:18:31.917Z,0
2022-10-23T04:19:31.959Z,0
2022-10-23T04:20:31.926Z,0
2022-10-23T04:21:34.971Z,0
2022-10-23T04:22:35.513Z,0
2022-10-23T04:23:31.931Z,0
2022-10-23T04:24:31.947Z,0
2022-10-23T04:25:32.004Z,0
2022-10-23T04:26:34.738Z,0
2022-10-23T04:27:34.999Z,0
2022-10-23T04:28:31.991Z,0
2022-10-23T04:29:31.949Z,0
2022-10-23T04:30:31.937Z,0
2022-10-23T04:31:31.958Z,0
2022-10-23T04:32:34.737Z,0
2022-10-23T04:33:31.988Z,0
2022-10-23T04:34:31.994Z,0
2022-10-23T04:35:32.018Z,0
2022-10-23T04:36:32.214Z,0
2022-10-23T04:37:33.107Z,0
2022-10-23T04:38:31.940Z,0
2022-10-23T04:39:31.967Z,0
2022-10-23T04:40:31.946Z,0
2022-10-23T04:41:32.070Z,0
2022-10-23T04:42:32.157Z,0
2022-10-23T04:43:35.176Z,0
2022-10-23T04:44:31.990Z,0
2022-10-23T04:45:31.967Z,0
2022-10-23T04:46:31.951Z,0
2022-10-23T04:47:31.981Z,0
2022-10-23T04:48:38.326Z,0
2022-10-23T04:49:31.981Z,0
2022-10-23T04:50:32.067Z,0
2022-10-23T04:51:31.981Z,0
2022-10-23T04:52:31.952Z,0
2022-10-23T04:53:32.028Z,0
2022-10-23T04:54:34.758Z,0
2022-10-23T04:55:31.963Z,0
2022-10-23T04:56:31.966Z,0
2022-10-23T04:57:31.993Z,0
2022-10-23T04:58:31.990Z,0
2022-10-23T04:59:35.048Z,0
2022-10-23T05:00:32.222Z,0
2022-10-23T05:01:32.652Z,0
2022-10-23T05:02:31.983Z,0
2022-10-23T05:03:31.988Z,0
2022-10-23T05:04:32.085Z,0
2022-10-23T05:05:34.744Z,0
2022-10-23T05:06:31.984Z,0
2022-10-23T05:07:32.011Z,0
2022-10-23T05:08:31.991Z,0
2022-10-23T05:09:32.221Z,0
2022-10-23T05:10:35.011Z,0
2022-10-23T05:11:32.023Z,0
2022-10-23T05:12:32.034Z,0
2022-10-23T05:13:32.020Z,0
2022-10-23T05:14:35.601Z,0
2022-10-23T05:15:32.150Z,0
2022-10-23T05:16:38.169Z,0
2022-10-23T05:17:32.026Z,0
2022-10-23T05:18:32.012Z,0
2022-10-23T05:19:33.592Z,0
2022-10-23T05:20:32.076Z,0
2022-10-23T05:21:34.825Z,0
2022-10-23T05:22:32.009Z,0
2022-10-23T05:23:32.005Z,0
2022-10-23T05:24:32.039Z,0
2022-10-23T05:25:32.052Z,0
2022-10-23T05:26:32.023Z,0
2022-10-23T05:27:35.200Z,0
2022-10-23T05:28:32.038Z,0
2022-10-23T05:29:32.069Z,0
2022-10-23T05:30:32.032Z,0
2022-10-23T05:31:32.065Z,0
2022-10-23T05:32:35.093Z,0
2022-10-23T05:33:32.030Z,0
2022-10-23T05:34:32.056Z,0
2022-10-23T05:35:32.137Z,0
2022-10-23T05:36:32.161Z,0
2022-10-23T05:37:32.052Z,0
2022-10-23T05:38:34.833Z,0
2022-10-23T05:39:32.050Z,0
2022-10-23T05:40:32.265Z,0
2022-10-23T05:41:32.172Z,0
2022-10-23T05:42:32.072Z,0
2022-10-23T05:43:34.857Z,0
2022-10-23T05:44:32.068Z,0
2022-10-23T05:45:32.109Z,0
2022-10-23T05:46:32.134Z,0
2022-10-23T05:47:32.175Z,0
2022-10-23T05:48:43.426Z,0
2022-10-23T05:49:32.066Z,0
2022-10-23T05:50:32.067Z,0
2022-10-23T05:51:32.171Z,0
2022-10-23T05:52:32.211Z,0
2022-10-23T05:53:32.059Z,0
2022-10-23T05:54:35.092Z,0
2022-10-23T05:55:32.110Z,0
2022-10-23T05:56:32.063Z,0
2022-10-23T05:57:32.201Z,0
2022-10-23T05:58:32.057Z,0
2022-10-23T05:59:32.518Z,0
2022-10-23T06:00:32.139Z,0
2022-10-23T06:01:33.113Z,0
2022-10-23T06:02:32.581Z,0
2022-10-23T06:03:32.093Z,0
2022-10-23T06:04:32.247Z,0
2022-10-23T06:05:32.487Z,0
2022-10-23T06:06:32.075Z,0
2022-10-23T06:07:38.077Z,0
2022-10-23T06:08:32.193Z,0
2022-10-23T06:09:32.240Z,0
2022-10-23T06:10:35.165Z,0
2022-10-23T06:11:32.131Z,5
2022-10-23T06:12:31.775Z,5
2022-10-23T06:13:32.178Z,5
2022-10-23T06:14:32.085Z,5
2022-10-23T06:15:32.152Z,5
2022-10-23T06:16:32.091Z,5
2022-10-23T06:17:32.089Z,5
2022-10-23T06:18:32.124Z,5
2022-10-23T06:19:32.100Z,5
2022-10-23T06:20:37.241Z,5
2022-10-23T06:21:33.192Z,5
2022-10-23T06:22:32.115Z,5
2022-10-23T06:23:32.103Z,5
2022-10-23T06:24:32.200Z,5
2022-10-23T06:25:32.132Z,5
2022-10-23T06:26:35.188Z,5
2022-10-23T06:27:32.107Z,5
2022-10-23T06:28:32.137Z,10
2022-10-23T06:29:32.140Z,10
2022-10-23T06:30:32.582Z,10
2022-10-23T06:31:32.132Z,15
2022-10-23T06:32:34.953Z,10
2022-10-23T06:33:32.116Z,10
2022-10-23T06:34:32.153Z,10
2022-10-23T06:35:32.195Z,10
2022-10-23T06:36:32.150Z,10
2022-10-23T06:37:34.974Z,10
2022-10-23T06:38:32.124Z,15
2022-10-23T06:39:38.071Z,15
2022-10-23T06:40:32.386Z,15
2022-10-23T06:41:32.132Z,15
2022-10-23T06:42:32.575Z,20
2022-10-23T06:43:35.016Z,20
2022-10-23T06:44:32.139Z,20
2022-10-23T06:45:32.218Z,20
2022-10-23T06:46:32.134Z,20
2022-10-23T06:47:31.995Z,20
2022-10-23T06:48:35.252Z,20
2022-10-23T06:49:33.296Z,20
2022-10-23T06:50:31.754Z,20
2022-10-23T06:51:32.018Z,15
2022-10-23T06:52:54.926Z,20
2022-10-23T06:53:35.799Z,30
2022-10-23T06:54:32.239Z,25
2022-10-23T06:55:32.571Z,25
2022-10-23T06:56:32.197Z,20
2022-10-23T06:57:32.377Z,15
2022-10-23T06:58:32.162Z,15
2022-10-23T06:59:35.243Z,15
2022-10-23T07:00:32.486Z,15
2022-10-23T07:01:33.708Z,15
2022-10-23T07:02:32.169Z,15
2022-10-23T07:03:32.341Z,15
2022-10-23T07:04:33.207Z,15
2022-10-23T07:05:32.199Z,15
2022-10-23T07:06:32.196Z,15
2022-10-23T07:07:32.262Z,15
2022-10-23T07:08:32.278Z,20
2022-10-23T07:09:32.168Z,20
2022-10-23T07:10:35.122Z,20
2022-10-23T07:11:32.361Z,20
2022-10-23T07:12:32.258Z,20
2022-10-23T07:13:32.191Z,20
2022-10-23T07:14:32.180Z,25
2022-10-23T07:15:35.560Z,30
2022-10-23T07:16:32.058Z,35
2022-10-23T07:17:32.216Z,35
2022-10-23T07:18:32.520Z,35
2022-10-23T07:19:32.239Z,40
2022-10-23T07:20:32.283Z,35
2022-10-23T07:21:35.322Z,35
2022-10-23T07:22:32.240Z,35
2022-10-23T07:23:32.216Z,35
2022-10-23T07:24:32.274Z,30
2022-10-23T07:25:32.321Z,35
2022-10-23T07:26:35.273Z,40
2022-10-23T07:27:32.211Z,40
2022-10-23T07:28:32.324Z,35
2022-10-23T07:29:32.258Z,35
2022-10-23T07:30:32.380Z,35
2022-10-23T07:31:36.344Z,40
2022-10-23T07:32:37.119Z,40
2022-10-23T07:33:32.285Z,40
2022-10-23T07:34:32.047Z,40
2022-10-23T07:35:35.629Z,40
2022-10-23T07:36:32.119Z,40
2022-10-23T07:37:35.372Z,50
2022-10-23T07:38:32.281Z,50
2022-10-23T07:39:32.220Z,50
2022-10-23T07:40:32.327Z,45
2022-10-23T07:41:32.212Z,60
2022-10-23T07:42:32.252Z,45
2022-10-23T07:43:35.255Z,50
2022-10-23T07:44:36.099Z,50
2022-10-23T07:45:32.256Z,50
2022-10-23T07:46:32.264Z,50
2022-10-23T07:47:32.242Z,60
2022-10-23T07:48:35.295Z,55
2022-10-23T07:49:32.243Z,50
2022-10-23T07:50:32.308Z,55
2022-10-23T07:51:32.257Z,55
2022-10-23T07:52:38.482Z,50
2022-10-23T07:53:32.272Z,50
2022-10-23T07:54:35.310Z,45
2022-10-23T07:55:32.315Z,40
2022-10-23T07:56:32.284Z,50
2022-10-23T07:57:32.254Z,55
2022-10-23T07:58:32.377Z,50
2022-10-23T07:59:40.326Z,40
2022-10-23T08:00:35.119Z,40
2022-10-23T08:01:33.095Z,45
2022-10-23T08:02:32.575Z,40
2022-10-23T08:03:32.294Z,45
2022-10-23T08:04:32.297Z,40
2022-10-23T08:05:35.531Z,45
2022-10-23T08:06:32.272Z,35
2022-10-23T08:07:32.282Z,40
2022-10-23T08:08:32.525Z,60
2022-10-23T08:09:32.270Z,55
2022-10-23T08:10:35.526Z,55
2022-10-23T08:11:32.288Z,55
2022-10-23T08:12:32.290Z,50
2022-10-23T08:13:32.287Z,40
2022-10-23T08:14:32.382Z,25
2022-10-23T08:15:32.304Z,20
2022-10-23T08:16:32.349Z,20
2022-10-23T08:17:36.666Z,20
2022-10-23T08:18:32.300Z,20
2022-10-23T08:19:32.483Z,20
2022-10-23T08:20:32.520Z,25
2022-10-23T08:21:35.404Z,25
2022-10-23T08:22:32.302Z,25
2022-10-23T08:23:32.293Z,25
2022-10-23T08:24:35.373Z,20
2022-10-23T08:25:34.355Z,20
2022-10-23T08:26:32.369Z,20
2022-10-23T08:27:32.314Z,25
2022-10-23T08:28:41.370Z,25
2022-10-23T08:29:32.307Z,25
2022-10-23T08:30:32.630Z,40
2022-10-23T08:31:32.307Z,65
2022-10-23T08:32:32.361Z,80
2022-10-23T08:33:32.344Z,80
2022-10-23T08:34:32.325Z,75
2022-10-23T08:35:32.324Z,65
2022-10-23T08:36:32.555Z,70
2022-10-23T08:37:35.385Z,60
2022-10-23T08:38:32.331Z,50
2022-10-23T08:39:32.315Z,60
2022-10-23T08:40:32.364Z,55
2022-10-23T08:41:32.354Z,55
2022-10-23T08:42:32.364Z,60
2022-10-23T08:43:32.182Z,60
2022-10-23T08:44:32.328Z,60
2022-10-23T08:45:32.336Z,65
2022-10-23T08:46:32.733Z,60
2022-10-23T08:47:32.375Z,55
2022-10-23T08:48:35.497Z,60
2022-10-23T08:49:32.348Z,45
2022-10-23T08:50:32.553Z,40
2022-10-23T08:51:32.408Z,35
2022-10-23T08:52:32.391Z,45
2022-10-23T08:53:35.232Z,50
2022-10-23T08:54:32.355Z,45
2022-10-23T08:55:32.361Z,40
2022-10-23T08:56:32.439Z,40
2022-10-23T08:57:32.572Z,40
2022-10-23T08:58:32.423Z,40
2022-10-23T08:59:35.411Z,35
2022-10-23T09:00:32.369Z,35
2022-10-23T09:01:33.758Z,30
2022-10-23T09:02:32.841Z,25
2022-10-23T09:03:32.371Z,30
2022-10-23T09:04:35.497Z,40
2022-10-23T09:05:32.398Z,50
2022-10-23T09:06:32.408Z,45
2022-10-23T09:07:32.479Z,45
2022-10-23T09:08:32.403Z,40
2022-10-23T09:09:32.418Z,35
2022-10-23T09:10:35.405Z,35
2022-10-23T09:11:32.481Z,25
2022-10-23T09:12:32.438Z,25
2022-10-23T09:13:32.417Z,25
2022-10-23T09:14:32.426Z,30
2022-10-23T09:15:33.512Z,35
2022-10-23T09:16:32.438Z,35
2022-10-23T09:17:32.443Z,25
2022-10-23T09:18:32.464Z,35
2022-10-23T09:19:32.565Z,45
2022-10-23T09:20:35.465Z,50
2022-10-23T09:21:35.268Z,50
2022-10-23T09:22:32.399Z,60
2022-10-23T09:23:32.409Z,40
2022-10-23T09:24:32.498Z,40
2022-10-23T09:25:32.416Z,45
2022-10-23T09:26:35.484Z,40
2022-10-23T09:27:32.444Z,35
2022-10-23T09:28:32.478Z,30
2022-10-23T09:29:32.454Z,30
2022-10-23T09:30:32.461Z,35
2022-10-23T09:31:33.658Z,50
2022-10-23T09:32:32.441Z,45
2022-10-23T09:33:32.449Z,35
2022-10-23T09:34:32.451Z,45
2022-10-23T09:35:32.459Z,40
2022-10-23T09:36:32.543Z,30
2022-10-23T09:37:35.260Z,35
2022-10-23T09:38:32.423Z,55
2022-10-23T09:39:32.442Z,60
2022-10-23T09:40:32.297Z,45
2022-10-23T09:41:32.454Z,65
2022-10-23T09:42:35.306Z,65
2022-10-23T09:43:32.504Z,70
2022-10-23T09:44:32.539Z,70
2022-10-23T09:45:32.486Z,60
2022-10-23T09:46:32.522Z,55
2022-10-23T09:47:32.503Z,65
2022-10-23T09:48:35.378Z,65
2022-10-23T09:49:32.496Z,65
2022-10-23T09:50:32.541Z,55
2022-10-23T09:51:32.506Z,55
2022-10-23T09:52:32.544Z,55
2022-10-23T09:53:35.529Z,65
2022-10-23T09:54:32.482Z,60
2022-10-23T09:55:32.533Z,65
2022-10-23T09:56:34.027Z,65
2022-10-23T09:57:32.553Z,75
2022-10-23T09:58:32.464Z,70
2022-10-23T09:59:35.251Z,65
2022-10-23T10:00:32.535Z,45
2022-10-23T10:01:33.608Z,45
2022-10-23T10:02:32.555Z,50
2022-10-23T10:03:32.621Z,45
2022-10-23T10:04:35.257Z,65
2022-10-23T10:05:32.515Z,70
2022-10-23T10:06:33.055Z,75
2022-10-23T10:07:38.339Z,70
2022-10-23T10:08:32.561Z,70
2022-10-23T10:09:32.524Z,60
2022-10-23T10:10:35.653Z,55
2022-10-23T10:11:32.563Z,45
2022-10-23T10:12:32.631Z,55
2022-10-23T10:13:32.567Z,60
2022-10-23T10:14:32.521Z,55
2022-10-23T10:15:35.635Z,55
2022-10-23T10:16:32.932Z,50
2022-10-23T10:17:32.533Z,50
2022-10-23T10:18:32.534Z,50
2022-10-23T10:19:32.620Z,55
2022-10-23T10:20:32.584Z,60
2022-10-23T10:21:35.908Z,50
2022-10-23T10:22:32.555Z,55
2022-10-23T10:23:32.569Z,55
2022-10-23T10:24:32.582Z,45
2022-10-23T10:25:40.160Z,50
2022-10-23T10:26:34.866Z,65
2022-10-23T10:27:32.597Z,50
2022-10-23T10:28:32.566Z,50
2022-10-23T10:29:32.580Z,60
2022-10-23T10:30:32.921Z,70
2022-10-23T10:31:33.579Z,65
2022-10-23T10:32:38.389Z,55
2022-10-23T10:33:32.556Z,60
2022-10-23T10:34:32.581Z,65
2022-10-23T10:35:32.543Z,65
2022-10-23T10:36:32.682Z,70
2022-10-23T10:37:35.428Z,65
2022-10-23T10:38:32.572Z,70
2022-10-23T10:39:32.469Z,65
2022-10-23T10:40:32.654Z,65
2022-10-23T10:41:32.719Z,65
2022-10-23T10:42:32.594Z,65
2022-10-23T10:43:32.556Z,75
2022-10-23T10:44:32.591Z,65
2022-10-23T10:45:32.576Z,65
2022-10-23T10:46:32.653Z,70
2022-10-23T10:47:32.623Z,70
2022-10-23T10:48:35.568Z,65
2022-10-23T10:49:32.617Z,60
2022-10-23T10:50:32.561Z,70
2022-10-23T10:51:32.597Z,65
2022-10-23T10:52:32.565Z,55
2022-10-23T10:53:32.609Z,65
2022-10-23T10:54:32.410Z,55
2022-10-23T10:55:32.561Z,55
2022-10-23T10:56:32.657Z,35
2022-10-23T10:57:32.641Z,65
2022-10-23T10:58:32.603Z,65
2022-10-23T10:59:32.602Z,65
2022-10-23T11:00:32.662Z,65
2022-10-23T11:01:34.919Z,60
2022-10-23T11:02:32.769Z,65
2022-10-23T11:03:34.991Z,60
2022-10-23T11:04:35.382Z,40
2022-10-23T11:05:32.684Z,50
2022-10-23T11:06:32.631Z,60
2022-10-23T11:07:32.611Z,55
2022-10-23T11:08:36.850Z,55
2022-10-23T11:09:32.616Z,60
2022-10-23T11:10:32.600Z,45
2022-10-23T11:11:32.633Z,45
2022-10-23T11:12:32.655Z,50
2022-10-23T11:13:32.635Z,45
2022-10-23T11:14:32.663Z,45
2022-10-23T11:15:35.622Z,50
2022-10-23T11:16:32.662Z,40
2022-10-23T11:17:32.620Z,40
2022-10-23T11:18:32.616Z,45
2022-10-23T11:19:32.671Z,40
2022-10-23T11:20:35.641Z,45
2022-10-23T11:21:32.646Z,40
2022-10-23T11:22:32.682Z,50
2022-10-23T11:23:32.627Z,50
2022-10-23T11:24:32.619Z,50
2022-10-23T11:25:32.659Z,45
2022-10-23T11:26:35.718Z,40
2022-10-23T11:27:32.636Z,40
2022-10-23T11:28:32.698Z,45
2022-10-23T11:29:32.629Z,45
2022-10-23T11:30:32.794Z,40
2022-10-23T11:31:35.694Z,35
2022-10-23T11:33:32.643Z,35
2022-10-23T11:34:32.644Z,35
2022-10-23T11:35:32.663Z,40
2022-10-23T11:36:32.678Z,35
2022-10-23T11:37:35.459Z,35
2022-10-23T11:38:32.649Z,30
2022-10-23T11:39:32.695Z,35
2022-10-23T11:40:32.692Z,30
2022-10-23T11:41:36.015Z,30
2022-10-23T11:42:38.489Z,20
2022-10-23T11:43:32.680Z,20
2022-10-23T11:44:32.718Z,20
2022-10-23T11:45:32.656Z,20
2022-10-23T11:46:32.676Z,20
2022-10-23T11:47:39.914Z,25
2022-10-23T11:48:35.423Z,30
2022-10-23T11:49:35.548Z,30
2022-10-23T11:50:32.674Z,25
2022-10-23T11:51:32.806Z,25
2022-10-23T11:52:33.301Z,30
2022-10-23T11:53:41.691Z,30
2022-10-23T11:54:32.682Z,30
2022-10-23T11:55:36.843Z,30
2022-10-23T11:56:32.716Z,30
2022-10-23T11:57:33.397Z,30
2022-10-23T11:58:35.541Z,35
2022-10-23T11:59:35.515Z,35
2022-10-23T12:00:32.761Z,30
2022-10-23T12:01:33.163Z,30
2022-10-23T12:02:33.426Z,30
2022-10-23T12:03:33.040Z,30
2022-10-23T12:04:35.743Z,25
2022-10-23T12:05:32.727Z,20
2022-10-23T12:06:32.727Z,25
2022-10-23T12:07:35.296Z,25
2022-10-23T12:08:33.240Z,25
2022-10-23T12:09:33.816Z,30
2022-10-23T12:10:32.745Z,25
2022-10-23T12:11:37.299Z,25
2022-10-23T12:12:33.848Z,25
2022-10-23T12:13:32.744Z,25
2022-10-23T12:14:32.722Z,25
2022-10-23T12:15:35.537Z,20
2022-10-23T12:16:34.357Z,20
2022-10-23T12:17:32.763Z,20
2022-10-23T12:18:33.405Z,20
2022-10-23T12:19:32.741Z,20
2022-10-23T12:20:35.505Z,20
2022-10-23T12:21:32.740Z,20
2022-10-23T12:23:32.768Z,20
2022-10-23T12:24:32.801Z,20
2022-10-23T12:25:32.917Z,25
2022-10-23T12:26:35.647Z,20
2022-10-23T12:27:32.788Z,20
2022-10-23T12:28:35.896Z,20
2022-10-23T12:29:32.813Z,20
2022-10-23T12:30:32.747Z,20
2022-10-23T12:31:35.919Z,20
2022-10-23T12:32:33.712Z,20
2022-10-23T12:33:32.753Z,20
2022-10-23T12:34:35.558Z,20
2022-10-23T12:35:33.073Z,20
2022-10-23T12:36:34.028Z,20
2022-10-23T12:37:36.189Z,20
2022-10-23T12:38:38.938Z,20
2022-10-23T12:39:33.143Z,20
2022-10-23T12:40:35.979Z,20
2022-10-23T12:41:32.861Z,20
2022-10-23T12:42:35.926Z,20
2022-10-23T12:43:32.938Z,20
2022-10-23T12:44:32.802Z,20
2022-10-23T12:45:32.870Z,20
2022-10-23T12:46:32.784Z,20
2022-10-23T12:47:33.156Z,20
2022-10-23T12:48:35.557Z,20
2022-10-23T12:49:35.818Z,20
2022-10-23T12:50:32.668Z,20
2022-10-23T12:51:32.947Z,20
2022-10-23T12:52:32.671Z,20
2022-10-23T12:53:33.898Z,20
2022-10-23T12:54:32.666Z,25
2022-10-23T12:55:38.313Z,25
2022-10-23T12:56:37.543Z,25
2022-10-23T12:57:33.019Z,25
2022-10-23T12:58:32.939Z,25
2022-10-23T12:59:35.923Z,20
2022-10-23T13:00:32.800Z,20
2022-10-23T13:01:33.339Z,20
2022-10-23T13:02:33.831Z,20
2022-10-23T13:03:32.849Z,20
2022-10-23T13:04:35.673Z,20
2022-10-23T13:05:32.816Z,20
2022-10-23T13:06:32.802Z,20
2022-10-23T13:07:32.691Z,20
2022-10-23T13:08:32.846Z,20
2022-10-23T13:09:32.850Z,20
2022-10-23T13:10:32.855Z,20
2022-10-23T13:11:32.885Z,20
2022-10-23T13:12:32.866Z,20
2022-10-23T13:13:33.022Z,20
2022-10-23T13:14:32.978Z,20
2022-10-23T13:15:35.794Z,20
2022-10-23T13:16:33.074Z,20
2022-10-23T13:17:32.892Z,15
2022-10-23T13:18:32.861Z,15
2022-10-23T13:19:33.005Z,15
2022-10-23T13:20:32.879Z,15
2022-10-23T13:21:32.863Z,15
2022-10-23T13:22:32.845Z,15
2022-10-23T13:23:32.904Z,15
2022-10-23T13:24:33.140Z,15
2022-10-23T13:25:32.886Z,15
2022-10-23T13:26:32.888Z,15
2022-10-23T13:27:32.916Z,15
2022-10-23T13:28:32.874Z,15
2022-10-23T13:29:32.955Z,15
2022-10-23T13:30:33.078Z,15
2022-10-23T13:31:36.101Z,10
2022-10-23T13:32:32.947Z,10
2022-10-23T13:33:32.889Z,10
2022-10-23T13:34:32.873Z,10
2022-10-23T13:35:32.981Z,10
2022-10-23T13:36:32.999Z,10
2022-10-23T13:37:33.174Z,10
2022-10-23T13:38:33.154Z,10
2022-10-23T13:39:32.908Z,10
2022-10-23T13:40:32.887Z,10
2022-10-23T13:41:33.099Z,15
2022-10-23T13:42:35.945Z,15
2022-10-23T13:43:32.928Z,15
2022-10-23T13:44:32.880Z,15
2022-10-23T13:45:32.894Z,15
2022-10-23T13:46:32.907Z,15
2022-10-23T13:47:35.778Z,15
2022-10-23T13:48:32.930Z,20
2022-10-23T13:49:32.925Z,20
2022-10-23T13:50:32.888Z,20
2022-10-23T13:51:32.960Z,20
2022-10-23T13:52:32.952Z,20
2022-10-23T13:53:33.987Z,20
2022-10-23T13:54:33.053Z,20
2022-10-23T13:55:32.938Z,20
2022-10-23T13:56:32.917Z,20
2022-10-23T13:57:32.914Z,20
2022-10-23T13:58:36.051Z,20
2022-10-23T13:59:32.894Z,15
2022-10-23T14:00:32.933Z,15
2022-10-23T14:01:33.871Z,15
2022-10-23T14:02:36.437Z,15
2022-10-23T14:03:32.991Z,15
2022-10-23T14:04:35.992Z,15
2022-10-23T14:05:32.920Z,15
2022-10-23T14:06:32.971Z,15
2022-10-23T14:07:32.941Z,10
2022-10-23T14:08:32.989Z,10
2022-10-23T14:09:37.894Z,10
2022-10-23T14:10:36.736Z,10
2022-10-23T14:11:33.114Z,10
2022-10-23T14:12:32.966Z,10
2022-10-23T14:13:32.985Z,10
2022-10-23T14:14:32.998Z,10
2022-10-23T14:15:36.004Z,10
2022-10-23T14:16:32.982Z,10
2022-10-23T14:17:32.960Z,10
2022-10-23T14:18:33.130Z,10
2022-10-23T14:19:33.402Z,10
2022-10-23T14:20:38.649Z,10
2022-10-23T14:21:32.958Z,10
2022-10-23T14:22:32.974Z,10
2022-10-23T14:23:33.003Z,10
2022-10-23T14:24:33.019Z,15
2022-10-23T14:25:36.051Z,10
2022-10-23T14:26:33.050Z,10
2022-10-23T14:27:32.971Z,10
2022-10-23T14:28:42.024Z,15
2022-10-23T14:29:33.821Z,15
2022-10-23T14:30:33.061Z,15
2022-10-23T14:31:35.980Z,15
2022-10-23T14:32:35.760Z,10